• Join FlightAware (Why Join?)
  • Login
  • US Flag 
08:14PM EDT


 

Airport Tracker/Info


-or-


 

Live Flight TrackerFlight Track Log ✈ SWA225 ✈ 09-May-2013 ✈ KSNA - KOAK

Flight Track Log - Related Links

Times and Time Zones

All times are in EDT time to prevent confusion due to time zone crossing. See the SWA225 flight status page for this flight to view local times or setup timezone preferences in your user account.

Time Position Orientation Groundspeed Altitude Reporting Facility
EDT Latitude Longitude Course Direction KTS MPH feet Rate Location/Type
10:12AM 33.6433 -117.8881 320° Northwest 152 175 1,800  Level Los Angeles Center
10:13AM 33.6022 -117.8953 188° South 150 173 3,300 1,500 Climbing Los Angeles Center
10:14AM 33.5419 -117.9153 195° South 220 253 5,000 2,820 Climbing Los Angeles Center
10:15AM 33.4769 -117.9683 214° Southwest 273 314 9,100 3,120 Climbing Los Angeles Center
10:16AM 33.4083 -118.0264 215° Southwest 291 335 11,500 3,000 Climbing Los Angeles Center
10:17AM 34.1377 -118.3357 320° Northwest  Level Estimated
10:17AM 33.3617 -118.1164 238° Southwest 334 384 15,300  Level Los Angeles Center
10:18AM 33.3992 -118.2428 290° West 364 419 18,800 3,180 Climbing Los Angeles Center
10:19AM 33.4981 -118.2789 343° North 371 427 21,900 2,820 Climbing Los Angeles Center
10:20AM 33.6006 -118.3156 343° North 381 438 24,600 2,400 Climbing Los Angeles Center
10:21AM 33.7106 -118.3547 344° North 393 452 26,900 2,100 Climbing Los Angeles Center
10:22AM 33.8281 -118.3956 344° North 411 473 29,000 1,920 Climbing Los Angeles Center
10:23AM 33.9403 -118.4353 344° North 418 481 30,900 1,980 Climbing Los Angeles Center
10:24AM 34.0489 -118.4892 338° Northwest 421 484 33,100 1,860 Climbing Los Angeles Center
10:25AM 34.1572 -118.5422 338° Northwest 420 483 34,800 1,440 Climbing Los Angeles Center
10:26AM 34.2669 -118.5964 338° Northwest 424 488 36,100 1,500 Climbing Los Angeles Center
10:27AM 34.3964 -118.6597 338° Northwest 417 480 38,000 900 Climbing Los Angeles Center
10:28AM 34.5014 -118.7125 338° Northwest 412 474 38,000  Level Los Angeles Center
10:29AM 34.6069 -118.7642 338° Northwest 408 470 38,000  Level Los Angeles Center
10:30AM 34.7128 -118.8169 338° Northwest 412 474 38,000  Level Los Angeles Center
10:31AM 34.8153 -118.8747 335° Northwest 411 473 38,000  Level Los Angeles Center
10:32AM 34.9164 -118.9725 322° Northwest 407 468 38,000  Level Los Angeles Center
10:33AM 35.0075 -119.0583 322° Northwest 411 473 38,000  Level Los Angeles Center
10:34AM 35.0978 -119.1478 321° Northwest 417 480 38,000  Level Los Angeles Center
10:35AM 35.1881 -119.2372 321° Northwest 420 483 38,000  Level Los Angeles Center
10:36AM 35.2803 -119.3272 321° Northwest 423 487 38,100  Climbing Los Angeles Center
10:37AM 35.3725 -119.4178 321° Northwest 425 489 38,000 -120 Descending Los Angeles Center
10:38AM 35.4083 -119.4528 321° Northwest 425 489 38,000  Level Oakland Center
10:39AM 35.5181 -119.5625 321° Northwest 426 490 38,000  Level Oakland Center
10:40AM 35.6106 -119.6544 321° Northwest 428 493 38,000  Level Oakland Center
10:41AM 35.7025 -119.7464 321° Northwest 430 495 38,000  Level Oakland Center
10:42AM 35.7944 -119.8383 321° Northwest 428 493 38,000  Level Oakland Center
10:43AM 35.8864 -119.9319 320° Northwest 432 497 38,000  Level Oakland Center
10:44AM 35.9794 -120.0239 321° Northwest 432 497 38,000  Level Oakland Center
10:45AM 36.0697 -120.1144 321° Northwest 423 487 38,000  Level Oakland Center
10:46AM 36.1592 -120.2064 320° Northwest 422 486 38,000  Level Oakland Center
10:47AM 36.2675 -120.3175 320° Northwest 423 487 38,000  Level Oakland Center
10:48AM 36.3581 -120.4106 320° Northwest 425 489 38,000 -1,140 Level Oakland Center
10:49AM 36.4475 -120.5033 320° Northwest 421 484 35,800 -2,580 Descending Oakland Center
10:50AM 36.5356 -120.5925 321° Northwest 411 473 32,800 -3,000 Descending Oakland Center
10:51AM 36.6228 -120.6844 320° Northwest 411 473 29,700 -2,400 Descending Oakland Center
10:52AM 36.7122 -120.7775 320° Northwest 420 483 28,000 -960 Descending Oakland Center
10:53AM 36.7967 -120.8681 319° Northwest 403 464 27,800 -2,160 Descending Oakland Center
10:54AM 36.8886 -120.9756 317° Northwest 415 478 23,700 -3,240 Descending Oakland Center
10:55AM 36.9742 -121.0742 317° Northwest 413 475 21,200 -1,860 Descending Oakland Center
10:56AM 37.0508 -121.1631 317° Northwest 401 461 20,000 -1,380 Descending Oakland Center
10:57AM 37.1347 -121.2586 318° Northwest 382 440 18,500 -2,640 Descending Oakland Center
10:58AM 37.2147 -121.3508 317° Northwest 388 447 14,700 -3,600 Descending Oakland Center
10:59AM 37.2967 -121.4475 317° Northwest 401 461 11,300 -2,400 Descending Oakland Center
11:00AM 37.3833 -121.5333 322° Northwest 343 395 9,900 -1,260 Descending Northern Cal TRACON
11:01AM 37.4333 -121.6167 307° West 303 349 8,900 -1,260 Descending Northern Cal TRACON
11:02AM 37.5000 -121.6833 322° Northwest 280 322 7,400 -1,380 Descending Northern Cal TRACON
11:03AM 37.5333 -121.7500 302° West 271 312 6,300 -780 Descending Northern Cal TRACON
11:04AM 37.5333 -121.8333 270° West 246 283 6,000 -660 Descending Northern Cal TRACON
11:05AM 37.5500 -121.9167 284° West 228 262 5,000 -780 Descending Northern Cal TRACON
11:06AM 37.5500 -121.9833 270° West 219 252 4,600 -780 Descending Northern Cal TRACON
11:07AM 37.5833 -122.0333 310° West 201 231 3,600 -1,020 Descending Northern Cal TRACON
11:08AM 37.6167 -122.0833 310° West 166 191 2,600 -1,020 Descending Northern Cal TRACON
11:08AM 37.6267 -122.1019 304° West 185 213 2,200 -840 Descending Oakland Center
11:09AM 37.6550 -122.1447 310° West 169 194 1,400 -840 Descending Oakland Center
11:10AM 37.6806 -122.1825 311° West 156 180 600 9,120 Descending Oakland Center
11:11AM 37.7033 -122.2167 310° West 140 161 20,000 19,080 Climbing Oakland Center
11:13AM 37.7167 -122.2167 270° West  Level FlightAware Approximate
11:20AM 37.7213 -122.2207 270° West  Level Estimated